sensor_id;sensor_type;location;lat;lon;timestamp;P1;durP1;ratioP1;P2;durP2;ratioP2
20397;SDS011;10358;49.590;11.030;2023-04-25T00:02:20;6.07;;;3.73;;
20397;SDS011;10358;49.590;11.030;2023-04-25T00:04:45;6.77;;;3.80;;
20397;SDS011;10358;49.590;11.030;2023-04-25T00:07:13;7.60;;;3.73;;
20397;SDS011;10358;49.590;11.030;2023-04-25T00:09:39;5.53;;;3.57;;
20397;SDS011;10358;49.590;11.030;2023-04-25T00:12:05;6.70;;;4.10;;
20397;SDS011;10358;49.590;11.030;2023-04-25T00:14:31;5.23;;;3.93;;
20397;SDS011;10358;49.590;11.030;2023-04-25T00:16:59;5.07;;;3.70;;
20397;SDS011;10358;49.590;11.030;2023-04-25T00:19:25;6.33;;;3.77;;
20397;SDS011;10358;49.590;11.030;2023-04-25T00:21:53;5.33;;;3.77;;
20397;SDS011;10358;49.590;11.030;2023-04-25T00:24:21;6.13;;;4.20;;
20397;SDS011;10358;49.590;11.030;2023-04-25T00:26:47;4.83;;;3.27;;
20397;SDS011;10358;49.590;11.030;2023-04-25T00:29:12;4.50;;;3.53;;
20397;SDS011;10358;49.590;11.030;2023-04-25T00:31:38;6.07;;;3.60;;
20397;SDS011;10358;49.590;11.030;2023-04-25T00:34:03;5.07;;;3.57;;
20397;SDS011;10358;49.590;11.030;2023-04-25T00:36:31;4.47;;;3.87;;
20397;SDS011;10358;49.590;11.030;2023-04-25T00:38:56;6.00;;;3.83;;
20397;SDS011;10358;49.590;11.030;2023-04-25T00:41:22;5.57;;;3.80;;
20397;SDS011;10358;49.590;11.030;2023-04-25T00:43:50;6.40;;;3.93;;
20397;SDS011;10358;49.590;11.030;2023-04-25T00:46:16;4.93;;;3.77;;
20397;SDS011;10358;49.590;11.030;2023-04-25T00:48:42;5.60;;;3.63;;
20397;SDS011;10358;49.590;11.030;2023-04-25T00:51:07;5.07;;;3.40;;
20397;SDS011;10358;49.590;11.030;2023-04-25T00:53:37;6.63;;;3.60;;
20397;SDS011;10358;49.590;11.030;2023-04-25T00:56:02;4.70;;;3.53;;
20397;SDS011;10358;49.590;11.030;2023-04-25T00:58:28;6.30;;;3.60;;
20397;SDS011;10358;49.590;11.030;2023-04-25T01:00:54;6.93;;;3.50;;
20397;SDS011;10358;49.590;11.030;2023-04-25T01:03:20;4.77;;;3.60;;
20397;SDS011;10358;49.590;11.030;2023-04-25T01:05:46;5.80;;;3.50;;
20397;SDS011;10358;49.590;11.030;2023-04-25T01:08:13;4.27;;;3.17;;
20397;SDS011;10358;49.590;11.030;2023-04-25T01:10:39;9.03;;;3.83;;
20397;SDS011;10358;49.590;11.030;2023-04-25T01:13:05;6.07;;;3.50;;
20397;SDS011;10358;49.590;11.030;2023-04-25T01:15:31;6.03;;;3.90;;
20397;SDS011;10358;49.590;11.030;2023-04-25T01:17:56;5.47;;;3.43;;
20397;SDS011;10358;49.590;11.030;2023-04-25T01:20:23;4.93;;;3.43;;
20397;SDS011;10358;49.590;11.030;2023-04-25T01:22:50;4.67;;;3.27;;
20397;SDS011;10358;49.590;11.030;2023-04-25T01:25:17;5.10;;;2.80;;
20397;SDS011;10358;49.590;11.030;2023-04-25T01:27:43;4.73;;;3.10;;
20397;SDS011;10358;49.590;11.030;2023-04-25T01:30:09;5.10;;;3.20;;
20397;SDS011;10358;49.590;11.030;2023-04-25T01:32:35;4.57;;;3.50;;
20397;SDS011;10358;49.590;11.030;2023-04-25T01:35:05;4.50;;;3.30;;
20397;SDS011;10358;49.590;11.030;2023-04-25T01:37:34;5.97;;;3.80;;
20397;SDS011;10358;49.590;11.030;2023-04-25T01:40:02;5.20;;;3.50;;
20397;SDS011;10358;49.590;11.030;2023-04-25T01:42:28;5.40;;;4.00;;
20397;SDS011;10358;49.590;11.030;2023-04-25T01:44:53;5.03;;;3.47;;
20397;SDS011;10358;49.590;11.030;2023-04-25T01:47:19;6.03;;;3.60;;
20397;SDS011;10358;49.590;11.030;2023-04-25T01:49:45;6.80;;;3.80;;
20397;SDS011;10358;49.590;11.030;2023-04-25T01:52:10;5.67;;;3.47;;
20397;SDS011;10358;49.590;11.030;2023-04-25T01:54:36;5.13;;;3.50;;
20397;SDS011;10358;49.590;11.030;2023-04-25T01:57:01;4.80;;;3.30;;
20397;SDS011;10358;49.590;11.030;2023-04-25T01:59:27;6.03;;;3.80;;
20397;SDS011;10358;49.590;11.030;2023-04-25T02:01:52;5.80;;;3.50;;
20397;SDS011;10358;49.590;11.030;2023-04-25T02:04:18;8.50;;;3.83;;
20397;SDS011;10358;49.590;11.030;2023-04-25T02:06:43;5.63;;;4.10;;
20397;SDS011;10358;49.590;11.030;2023-04-25T02:09:09;5.27;;;3.63;;
20397;SDS011;10358;49.590;11.030;2023-04-25T02:11:34;4.50;;;3.73;;
20397;SDS011;10358;49.590;11.030;2023-04-25T02:14:00;5.43;;;4.00;;
20397;SDS011;10358;49.590;11.030;2023-04-25T02:16:26;5.90;;;3.90;;
20397;SDS011;10358;49.590;11.030;2023-04-25T02:18:51;7.70;;;4.20;;
20397;SDS011;10358;49.590;11.030;2023-04-25T02:21:17;5.37;;;4.00;;
20397;SDS011;10358;49.590;11.030;2023-04-25T02:23:43;5.50;;;3.90;;
20397;SDS011;10358;49.590;11.030;2023-04-25T02:26:10;4.93;;;3.80;;
20397;SDS011;10358;49.590;11.030;2023-04-25T02:28:36;5.27;;;3.83;;
20397;SDS011;10358;49.590;11.030;2023-04-25T02:31:02;5.13;;;3.87;;
20397;SDS011;10358;49.590;11.030;2023-04-25T02:33:27;5.60;;;3.87;;
20397;SDS011;10358;49.590;11.030;2023-04-25T02:35:53;5.60;;;3.77;;
20397;SDS011;10358;49.590;11.030;2023-04-25T02:38:18;6.53;;;3.37;;
20397;SDS011;10358;49.590;11.030;2023-04-25T02:40:44;6.83;;;4.00;;
20397;SDS011;10358;49.590;11.030;2023-04-25T02:43:09;5.70;;;3.90;;
20397;SDS011;10358;49.590;11.030;2023-04-25T02:45:35;6.77;;;3.77;;
20397;SDS011;10358;49.590;11.030;2023-04-25T02:48:01;5.87;;;3.33;;
20397;SDS011;10358;49.590;11.030;2023-04-25T02:50:27;6.97;;;3.93;;
20397;SDS011;10358;49.590;11.030;2023-04-25T02:52:53;6.27;;;4.10;;
20397;SDS011;10358;49.590;11.030;2023-04-25T02:55:18;6.97;;;3.87;;
20397;SDS011;10358;49.590;11.030;2023-04-25T02:57:44;4.90;;;3.57;;
20397;SDS011;10358;49.590;11.030;2023-04-25T03:00:10;8.13;;;4.13;;
20397;SDS011;10358;49.590;11.030;2023-04-25T03:02:36;5.77;;;3.97;;
20397;SDS011;10358;49.590;11.030;2023-04-25T03:05:02;5.10;;;3.63;;
20397;SDS011;10358;49.590;11.030;2023-04-25T03:07:28;5.10;;;3.90;;
20397;SDS011;10358;49.590;11.030;2023-04-25T03:09:53;6.43;;;4.00;;
20397;SDS011;10358;49.590;11.030;2023-04-25T03:12:20;5.97;;;3.90;;
20397;SDS011;10358;49.590;11.030;2023-04-25T03:14:46;5.50;;;4.03;;
20397;SDS011;10358;49.590;11.030;2023-04-25T03:17:11;6.40;;;4.13;;
20397;SDS011;10358;49.590;11.030;2023-04-25T03:19:37;5.70;;;3.80;;
20397;SDS011;10358;49.590;11.030;2023-04-25T03:22:02;7.90;;;3.50;;
20397;SDS011;10358;49.590;11.030;2023-04-25T03:24:28;5.03;;;3.77;;
20397;SDS011;10358;49.590;11.030;2023-04-25T03:26:53;5.17;;;3.87;;
20397;SDS011;10358;49.590;11.030;2023-04-25T03:29:19;6.27;;;4.03;;
20397;SDS011;10358;49.590;11.030;2023-04-25T03:31:49;5.70;;;4.20;;
20397;SDS011;10358;49.590;11.030;2023-04-25T03:34:14;5.77;;;4.20;;
20397;SDS011;10358;49.590;11.030;2023-04-25T03:36:40;6.60;;;4.27;;
20397;SDS011;10358;49.590;11.030;2023-04-25T03:39:06;6.80;;;4.30;;
20397;SDS011;10358;49.590;11.030;2023-04-25T03:41:31;6.30;;;3.80;;
20397;SDS011;10358;49.590;11.030;2023-04-25T03:43:57;6.70;;;4.20;;
20397;SDS011;10358;49.590;11.030;2023-04-25T03:46:22;5.97;;;4.17;;
20397;SDS011;10358;49.590;11.030;2023-04-25T03:48:48;6.87;;;4.27;;
20397;SDS011;10358;49.590;11.030;2023-04-25T03:51:13;7.27;;;4.40;;
20397;SDS011;10358;49.590;11.030;2023-04-25T03:53:39;7.70;;;4.60;;
20397;SDS011;10358;49.590;11.030;2023-04-25T03:56:04;6.50;;;4.77;;
20397;SDS011;10358;49.590;11.030;2023-04-25T03:58:30;8.23;;;4.53;;
20397;SDS011;10358;49.590;11.030;2023-04-25T04:00:56;6.57;;;4.70;;
20397;SDS011;10358;49.590;11.030;2023-04-25T04:03:21;7.73;;;5.30;;
20397;SDS011;10358;49.590;11.030;2023-04-25T04:05:47;9.87;;;5.10;;
20397;SDS011;10358;49.590;11.030;2023-04-25T04:08:12;8.23;;;5.60;;
20397;SDS011;10358;49.590;11.030;2023-04-25T04:10:38;8.80;;;5.50;;
20397;SDS011;10358;49.590;11.030;2023-04-25T04:13:03;10.57;;;5.80;;
20397;SDS011;10358;49.590;11.030;2023-04-25T04:15:29;8.10;;;5.40;;
20397;SDS011;10358;49.590;11.030;2023-04-25T04:17:57;7.13;;;5.63;;
20397;SDS011;10358;49.590;11.030;2023-04-25T04:20:27;7.90;;;6.00;;
20397;SDS011;10358;49.590;11.030;2023-04-25T04:22:53;8.80;;;5.50;;
20397;SDS011;10358;49.590;11.030;2023-04-25T04:25:19;8.70;;;5.57;;
20397;SDS011;10358;49.590;11.030;2023-04-25T04:27:44;7.73;;;5.40;;
20397;SDS011;10358;49.590;11.030;2023-04-25T04:30:11;7.60;;;5.23;;
20397;SDS011;10358;49.590;11.030;2023-04-25T04:32:37;7.63;;;5.80;;
20397;SDS011;10358;49.590;11.030;2023-04-25T04:35:03;7.60;;;5.40;;
20397;SDS011;10358;49.590;11.030;2023-04-25T04:37:29;7.40;;;5.57;;
20397;SDS011;10358;49.590;11.030;2023-04-25T04:39:55;7.80;;;5.40;;
20397;SDS011;10358;49.590;11.030;2023-04-25T04:42:21;10.40;;;5.33;;
20397;SDS011;10358;49.590;11.030;2023-04-25T04:44:46;7.03;;;4.87;;
20397;SDS011;10358;49.590;11.030;2023-04-25T04:47:12;6.77;;;5.07;;
20397;SDS011;10358;49.590;11.030;2023-04-25T04:49:39;6.30;;;4.83;;
20397;SDS011;10358;49.590;11.030;2023-04-25T04:52:05;6.50;;;4.70;;
20397;SDS011;10358;49.590;11.030;2023-04-25T04:54:30;8.10;;;4.83;;
20397;SDS011;10358;49.590;11.030;2023-04-25T04:56:56;6.63;;;4.60;;
20397;SDS011;10358;49.590;11.030;2023-04-25T04:59:21;7.00;;;4.53;;
20397;SDS011;10358;49.590;11.030;2023-04-25T05:01:47;7.60;;;4.67;;
20397;SDS011;10358;49.590;11.030;2023-04-25T05:04:12;6.33;;;4.20;;
20397;SDS011;10358;49.590;11.030;2023-04-25T05:06:38;7.40;;;5.00;;
20397;SDS011;10358;49.590;11.030;2023-04-25T05:09:03;7.63;;;4.63;;
20397;SDS011;10358;49.590;11.030;2023-04-25T05:11:29;6.60;;;4.90;;
20397;SDS011;10358;49.590;11.030;2023-04-25T05:13:55;6.93;;;4.80;;
20397;SDS011;10358;49.590;11.030;2023-04-25T05:16:20;6.20;;;4.67;;
20397;SDS011;10358;49.590;11.030;2023-04-25T05:18:46;6.50;;;4.80;;
20397;SDS011;10358;49.590;11.030;2023-04-25T05:21:12;6.97;;;4.57;;
20397;SDS011;10358;49.590;11.030;2023-04-25T05:23:38;6.43;;;4.50;;
20397;SDS011;10358;49.590;11.030;2023-04-25T05:26:03;6.63;;;4.77;;
20397;SDS011;10358;49.590;11.030;2023-04-25T05:28:29;6.87;;;4.10;;
20397;SDS011;10358;49.590;11.030;2023-04-25T05:30:55;7.57;;;4.27;;
20397;SDS011;10358;49.590;11.030;2023-04-25T05:33:20;7.20;;;4.20;;
20397;SDS011;10358;49.590;11.030;2023-04-25T05:35:46;5.23;;;3.70;;
20397;SDS011;10358;49.590;11.030;2023-04-25T05:38:12;6.33;;;4.00;;
20397;SDS011;10358;49.590;11.030;2023-04-25T05:40:37;5.70;;;3.80;;
20397;SDS011;10358;49.590;11.030;2023-04-25T05:43:03;5.20;;;3.47;;
20397;SDS011;10358;49.590;11.030;2023-04-25T05:45:28;5.13;;;3.70;;
20397;SDS011;10358;49.590;11.030;2023-04-25T05:47:54;4.87;;;3.80;;
20397;SDS011;10358;49.590;11.030;2023-04-25T05:50:19;4.27;;;3.50;;
20397;SDS011;10358;49.590;11.030;2023-04-25T05:52:45;6.60;;;3.70;;
20397;SDS011;10358;49.590;11.030;2023-04-25T05:55:11;6.60;;;4.13;;
20397;SDS011;10358;49.590;11.030;2023-04-25T05:57:36;5.50;;;3.90;;
20397;SDS011;10358;49.590;11.030;2023-04-25T06:00:02;7.20;;;4.23;;
20397;SDS011;10358;49.590;11.030;2023-04-25T06:02:30;6.70;;;4.57;;
20397;SDS011;10358;49.590;11.030;2023-04-25T06:04:55;6.27;;;4.40;;
20397;SDS011;10358;49.590;11.030;2023-04-25T06:07:21;6.87;;;4.50;;
20397;SDS011;10358;49.590;11.030;2023-04-25T06:09:46;6.73;;;4.50;;
20397;SDS011;10358;49.590;11.030;2023-04-25T06:12:12;6.53;;;4.83;;
20397;SDS011;10358;49.590;11.030;2023-04-25T06:14:37;7.53;;;5.37;;
20397;SDS011;10358;49.590;11.030;2023-04-25T06:17:03;7.60;;;5.20;;
20397;SDS011;10358;49.590;11.030;2023-04-25T06:19:33;8.63;;;5.57;;
20397;SDS011;10358;49.590;11.030;2023-04-25T06:22:00;7.67;;;5.47;;
20397;SDS011;10358;49.590;11.030;2023-04-25T06:24:26;9.07;;;6.00;;
20397;SDS011;10358;49.590;11.030;2023-04-25T06:26:55;8.40;;;6.33;;
20397;SDS011;10358;49.590;11.030;2023-04-25T06:29:20;8.43;;;5.70;;
20397;SDS011;10358;49.590;11.030;2023-04-25T06:31:46;8.57;;;6.00;;
20397;SDS011;10358;49.590;11.030;2023-04-25T06:34:12;11.87;;;6.10;;
20397;SDS011;10358;49.590;11.030;2023-04-25T06:36:37;10.23;;;6.30;;
20397;SDS011;10358;49.590;11.030;2023-04-25T06:39:03;11.67;;;6.57;;
20397;SDS011;10358;49.590;11.030;2023-04-25T06:41:29;13.80;;;6.43;;
20397;SDS011;10358;49.590;11.030;2023-04-25T06:43:54;11.73;;;6.60;;
20397;SDS011;10358;49.590;11.030;2023-04-25T06:46:20;8.87;;;6.27;;
20397;SDS011;10358;49.590;11.030;2023-04-25T06:48:45;8.93;;;6.33;;
20397;SDS011;10358;49.590;11.030;2023-04-25T06:51:11;9.97;;;6.17;;
20397;SDS011;10358;49.590;11.030;2023-04-25T06:53:38;10.90;;;6.50;;
20397;SDS011;10358;49.590;11.030;2023-04-25T06:56:04;11.33;;;7.50;;
20397;SDS011;10358;49.590;11.030;2023-04-25T06:58:29;10.57;;;6.87;;
20397;SDS011;10358;49.590;11.030;2023-04-25T07:00:55;9.30;;;6.03;;
20397;SDS011;10358;49.590;11.030;2023-04-25T07:03:21;11.43;;;5.40;;
20397;SDS011;10358;49.590;11.030;2023-04-25T07:05:46;5.80;;;3.50;;
20397;SDS011;10358;49.590;11.030;2023-04-25T07:08:12;4.17;;;2.97;;
20397;SDS011;10358;49.590;11.030;2023-04-25T07:10:37;7.93;;;3.67;;
20397;SDS011;10358;49.590;11.030;2023-04-25T07:13:03;10.80;;;4.13;;
20397;SDS011;10358;49.590;11.030;2023-04-25T07:15:28;8.30;;;4.20;;
20397;SDS011;10358;49.590;11.030;2023-04-25T07:17:54;9.77;;;3.43;;
20397;SDS011;10358;49.590;11.030;2023-04-25T07:20:19;6.00;;;4.00;;
20397;SDS011;10358;49.590;11.030;2023-04-25T07:22:45;6.83;;;3.73;;
20397;SDS011;10358;49.590;11.030;2023-04-25T07:25:11;5.73;;;3.27;;
20397;SDS011;10358;49.590;11.030;2023-04-25T07:27:36;7.70;;;3.33;;
20397;SDS011;10358;49.590;11.030;2023-04-25T07:30:02;9.10;;;3.53;;
20397;SDS011;10358;49.590;11.030;2023-04-25T07:32:29;10.50;;;3.20;;
20397;SDS011;10358;49.590;11.030;2023-04-25T07:34:54;4.63;;;3.60;;
20397;SDS011;10358;49.590;11.030;2023-04-25T07:37:20;7.50;;;4.20;;
20397;SDS011;10358;49.590;11.030;2023-04-25T07:39:46;8.77;;;4.33;;
20397;SDS011;10358;49.590;11.030;2023-04-25T07:42:12;7.90;;;4.30;;
20397;SDS011;10358;49.590;11.030;2023-04-25T07:44:37;8.67;;;4.80;;
20397;SDS011;10358;49.590;11.030;2023-04-25T07:47:05;7.30;;;4.20;;
20397;SDS011;10358;49.590;11.030;2023-04-25T07:49:34;6.83;;;3.83;;
20397;SDS011;10358;49.590;11.030;2023-04-25T07:52:03;7.77;;;4.40;;
20397;SDS011;10358;49.590;11.030;2023-04-25T07:54:30;9.60;;;4.80;;
20397;SDS011;10358;49.590;11.030;2023-04-25T07:56:57;7.27;;;3.90;;
20397;SDS011;10358;49.590;11.030;2023-04-25T07:59:23;6.60;;;3.73;;
20397;SDS011;10358;49.590;11.030;2023-04-25T08:01:48;5.50;;;3.93;;
20397;SDS011;10358;49.590;11.030;2023-04-25T08:04:14;7.00;;;3.90;;
20397;SDS011;10358;49.590;11.030;2023-04-25T08:06:40;7.27;;;4.07;;
20397;SDS011;10358;49.590;11.030;2023-04-25T08:09:05;8.73;;;4.27;;
20397;SDS011;10358;49.590;11.030;2023-04-25T08:11:31;7.53;;;4.13;;
20397;SDS011;10358;49.590;11.030;2023-04-25T08:13:57;9.90;;;4.17;;
20397;SDS011;10358;49.590;11.030;2023-04-25T08:16:22;6.93;;;4.50;;
20397;SDS011;10358;49.590;11.030;2023-04-25T08:18:48;10.23;;;4.80;;
20397;SDS011;10358;49.590;11.030;2023-04-25T08:21:15;11.93;;;5.33;;
20397;SDS011;10358;49.590;11.030;2023-04-25T08:23:41;9.73;;;5.37;;
20397;SDS011;10358;49.590;11.030;2023-04-25T08:26:06;9.93;;;5.57;;
20397;SDS011;10358;49.590;11.030;2023-04-25T08:28:32;11.63;;;5.50;;
20397;SDS011;10358;49.590;11.030;2023-04-25T08:30:57;10.03;;;5.00;;
20397;SDS011;10358;49.590;11.030;2023-04-25T08:33:23;9.33;;;5.40;;
20397;SDS011;10358;49.590;11.030;2023-04-25T08:35:48;8.33;;;5.50;;
20397;SDS011;10358;49.590;11.030;2023-04-25T08:38:14;9.27;;;5.70;;
20397;SDS011;10358;49.590;11.030;2023-04-25T08:40:40;9.07;;;5.77;;
20397;SDS011;10358;49.590;11.030;2023-04-25T08:43:06;9.73;;;5.63;;
20397;SDS011;10358;49.590;11.030;2023-04-25T08:45:38;8.97;;;5.80;;
20397;SDS011;10358;49.590;11.030;2023-04-25T08:48:12;9.37;;;5.63;;
20397;SDS011;10358;49.590;11.030;2023-04-25T08:50:39;11.37;;;6.30;;
20397;SDS011;10358;49.590;11.030;2023-04-25T08:53:14;10.80;;;5.77;;
20397;SDS011;10358;49.590;11.030;2023-04-25T08:55:44;8.23;;;5.53;;
20397;SDS011;10358;49.590;11.030;2023-04-25T08:58:11;10.13;;;5.50;;
20397;SDS011;10358;49.590;11.030;2023-04-25T09:00:38;9.13;;;5.50;;
20397;SDS011;10358;49.590;11.030;2023-04-25T09:03:04;9.53;;;5.53;;
20397;SDS011;10358;49.590;11.030;2023-04-25T09:05:30;9.40;;;5.70;;
20397;SDS011;10358;49.590;11.030;2023-04-25T09:08:00;8.60;;;5.30;;
20397;SDS011;10358;49.590;11.030;2023-04-25T09:10:26;8.53;;;5.90;;
20397;SDS011;10358;49.590;11.030;2023-04-25T09:15:31;8.23;;;5.03;;
20397;SDS011;10358;49.590;11.030;2023-04-25T09:17:58;10.47;;;5.23;;
20397;SDS011;10358;49.590;11.030;2023-04-25T09:20:24;8.33;;;4.80;;
20397;SDS011;10358;49.590;11.030;2023-04-25T09:23:00;6.87;;;4.60;;
20397;SDS011;10358;49.590;11.030;2023-04-25T09:25:33;7.70;;;4.70;;
20397;SDS011;10358;49.590;11.030;2023-04-25T09:28:03;6.73;;;4.00;;
20397;SDS011;10358;49.590;11.030;2023-04-25T09:30:30;10.67;;;3.77;;
20397;SDS011;10358;49.590;11.030;2023-04-25T09:32:57;15.27;;;4.73;;
20397;SDS011;10358;49.590;11.030;2023-04-25T09:35:29;5.63;;;3.60;;
20397;SDS011;10358;49.590;11.030;2023-04-25T09:37:59;6.27;;;3.97;;
20397;SDS011;10358;49.590;11.030;2023-04-25T09:40:25;8.20;;;4.07;;
20397;SDS011;10358;49.590;11.030;2023-04-25T09:42:51;7.43;;;3.90;;
20397;SDS011;10358;49.590;11.030;2023-04-25T09:45:17;5.87;;;3.40;;
20397;SDS011;10358;49.590;11.030;2023-04-25T09:47:42;4.97;;;3.20;;
20397;SDS011;10358;49.590;11.030;2023-04-25T09:50:14;4.10;;;2.83;;
20397;SDS011;10358;49.590;11.030;2023-04-25T09:52:41;4.03;;;2.80;;
20397;SDS011;10358;49.590;11.030;2023-04-25T09:55:06;5.00;;;2.43;;
20397;SDS011;10358;49.590;11.030;2023-04-25T09:57:32;4.03;;;2.10;;
20397;SDS011;10358;49.590;11.030;2023-04-25T09:59:58;5.97;;;2.27;;
20397;SDS011;10358;49.590;11.030;2023-04-25T10:02:26;5.53;;;2.30;;
20397;SDS011;10358;49.590;11.030;2023-04-25T10:04:53;8.90;;;2.23;;
20397;SDS011;10358;49.590;11.030;2023-04-25T10:07:23;5.37;;;2.20;;
20397;SDS011;10358;49.590;11.030;2023-04-25T10:09:50;4.03;;;1.90;;
20397;SDS011;10358;49.590;11.030;2023-04-25T10:12:24;4.07;;;1.73;;
20397;SDS011;10358;49.590;11.030;2023-04-25T10:14:51;3.63;;;1.60;;
20397;SDS011;10358;49.590;11.030;2023-04-25T10:17:17;4.17;;;1.77;;
20397;SDS011;10358;49.590;11.030;2023-04-25T10:19:45;3.83;;;1.90;;
20397;SDS011;10358;49.590;11.030;2023-04-25T10:22:17;4.07;;;2.07;;
20397;SDS011;10358;49.590;11.030;2023-04-25T10:24:59;6.27;;;2.20;;
20397;SDS011;10358;49.590;11.030;2023-04-25T10:27:28;4.07;;;2.00;;
20397;SDS011;10358;49.590;11.030;2023-04-25T10:30:06;5.37;;;2.20;;
20397;SDS011;10358;49.590;11.030;2023-04-25T10:32:35;5.30;;;2.37;;
20397;SDS011;10358;49.590;11.030;2023-04-25T10:35:10;5.73;;;2.40;;
20397;SDS011;10358;49.590;11.030;2023-04-25T10:37:36;4.93;;;2.00;;
20397;SDS011;10358;49.590;11.030;2023-04-25T10:40:08;5.17;;;1.90;;
20397;SDS011;10358;49.590;11.030;2023-04-25T10:42:35;4.87;;;1.90;;
20397;SDS011;10358;49.590;11.030;2023-04-25T10:45:09;3.83;;;2.07;;
20397;SDS011;10358;49.590;11.030;2023-04-25T10:47:35;3.20;;;1.63;;
20397;SDS011;10358;49.590;11.030;2023-04-25T10:50:05;4.23;;;1.60;;
20397;SDS011;10358;49.590;11.030;2023-04-25T10:52:32;3.53;;;1.73;;
20397;SDS011;10358;49.590;11.030;2023-04-25T10:54:58;3.43;;;1.97;;
20397;SDS011;10358;49.590;11.030;2023-04-25T10:57:27;4.00;;;1.73;;
20397;SDS011;10358;49.590;11.030;2023-04-25T11:02:46;4.10;;;1.70;;
20397;SDS011;10358;49.590;11.030;2023-04-25T11:05:18;4.17;;;1.90;;
20397;SDS011;10358;49.590;11.030;2023-04-25T11:07:51;3.60;;;1.70;;
20397;SDS011;10358;49.590;11.030;2023-04-25T11:10:19;4.03;;;1.60;;
20397;SDS011;10358;49.590;11.030;2023-04-25T11:12:49;3.73;;;1.60;;
20397;SDS011;10358;49.590;11.030;2023-04-25T11:15:15;3.03;;;1.70;;
20397;SDS011;10358;49.590;11.030;2023-04-25T11:17:41;9.13;;;1.80;;
20397;SDS011;10358;49.590;11.030;2023-04-25T11:20:08;4.47;;;1.90;;
20397;SDS011;10358;49.590;11.030;2023-04-25T11:22:36;3.13;;;1.50;;
20397;SDS011;10358;49.590;11.030;2023-04-25T11:25:06;4.53;;;1.90;;
20397;SDS011;10358;49.590;11.030;2023-04-25T11:27:39;3.30;;;1.70;;
20397;SDS011;10358;49.590;11.030;2023-04-25T11:30:18;4.83;;;1.63;;
20397;SDS011;10358;49.590;11.030;2023-04-25T11:32:45;3.07;;;1.80;;
20397;SDS011;10358;49.590;11.030;2023-04-25T11:35:12;2.93;;;1.50;;
20397;SDS011;10358;49.590;11.030;2023-04-25T11:37:41;2.67;;;1.70;;
20397;SDS011;10358;49.590;11.030;2023-04-25T11:40:08;3.50;;;1.70;;
20397;SDS011;10358;49.590;11.030;2023-04-25T11:42:38;2.70;;;1.50;;
20397;SDS011;10358;49.590;11.030;2023-04-25T11:45:05;1.97;;;1.40;;
20397;SDS011;10358;49.590;11.030;2023-04-25T11:47:31;2.90;;;1.30;;
20397;SDS011;10358;49.590;11.030;2023-04-25T11:50:01;3.47;;;1.60;;
20397;SDS011;10358;49.590;11.030;2023-04-25T11:52:35;2.40;;;1.23;;
20397;SDS011;10358;49.590;11.030;2023-04-25T11:55:01;3.67;;;1.40;;
20397;SDS011;10358;49.590;11.030;2023-04-25T11:57:30;1.93;;;1.30;;
20397;SDS011;10358;49.590;11.030;2023-04-25T12:00:04;2.97;;;1.30;;
20397;SDS011;10358;49.590;11.030;2023-04-25T12:02:54;5.90;;;1.40;;
20397;SDS011;10358;49.590;11.030;2023-04-25T12:05:26;4.10;;;1.47;;
20397;SDS011;10358;49.590;11.030;2023-04-25T12:07:54;1.97;;;1.50;;
20397;SDS011;10358;49.590;11.030;2023-04-25T12:10:20;2.60;;;1.67;;
20397;SDS011;10358;49.590;11.030;2023-04-25T12:12:46;2.20;;;1.43;;
20397;SDS011;10358;49.590;11.030;2023-04-25T12:15:25;3.67;;;1.53;;
20397;SDS011;10358;49.590;11.030;2023-04-25T12:17:51;2.60;;;1.50;;
20397;SDS011;10358;49.590;11.030;2023-04-25T12:20:19;2.50;;;1.47;;
20397;SDS011;10358;49.590;11.030;2023-04-25T12:22:48;4.20;;;1.50;;
20397;SDS011;10358;49.590;11.030;2023-04-25T12:25:34;2.87;;;1.57;;
20397;SDS011;10358;49.590;11.030;2023-04-25T12:30:52;4.83;;;1.57;;
20397;SDS011;10358;49.590;11.030;2023-04-25T12:33:22;1.93;;;1.40;;
20397;SDS011;10358;49.590;11.030;2023-04-25T12:35:49;3.53;;;1.67;;
20397;SDS011;10358;49.590;11.030;2023-04-25T12:38:21;3.03;;;1.60;;
20397;SDS011;10358;49.590;11.030;2023-04-25T12:40:47;2.60;;;1.60;;
20397;SDS011;10358;49.590;11.030;2023-04-25T12:43:13;3.50;;;1.80;;
20397;SDS011;10358;49.590;11.030;2023-04-25T12:45:38;3.53;;;1.90;;
20397;SDS011;10358;49.590;11.030;2023-04-25T12:48:04;2.97;;;1.53;;
20397;SDS011;10358;49.590;11.030;2023-04-25T12:50:30;2.80;;;1.70;;
20397;SDS011;10358;49.590;11.030;2023-04-25T12:52:56;2.50;;;1.60;;
20397;SDS011;10358;49.590;11.030;2023-04-25T12:55:22;3.97;;;2.30;;
20397;SDS011;10358;49.590;11.030;2023-04-25T12:57:47;2.87;;;1.60;;
20397;SDS011;10358;49.590;11.030;2023-04-25T13:00:13;3.67;;;1.70;;
20397;SDS011;10358;49.590;11.030;2023-04-25T13:02:40;2.87;;;1.90;;
20397;SDS011;10358;49.590;11.030;2023-04-25T13:05:05;6.23;;;1.90;;
20397;SDS011;10358;49.590;11.030;2023-04-25T13:07:31;3.20;;;1.70;;
20397;SDS011;10358;49.590;11.030;2023-04-25T13:09:57;4.40;;;1.67;;
20397;SDS011;10358;49.590;11.030;2023-04-25T13:12:22;3.40;;;2.00;;
20397;SDS011;10358;49.590;11.030;2023-04-25T13:14:48;2.90;;;1.87;;
20397;SDS011;10358;49.590;11.030;2023-04-25T13:17:13;2.63;;;1.70;;
20397;SDS011;10358;49.590;11.030;2023-04-25T13:19:39;3.20;;;1.70;;
20397;SDS011;10358;49.590;11.030;2023-04-25T13:22:04;4.37;;;2.00;;
20397;SDS011;10358;49.590;11.030;2023-04-25T13:24:30;2.53;;;1.83;;
20397;SDS011;10358;49.590;11.030;2023-04-25T13:26:55;4.53;;;2.00;;
20397;SDS011;10358;49.590;11.030;2023-04-25T13:29:21;4.70;;;2.33;;
20397;SDS011;10358;49.590;11.030;2023-04-25T13:31:46;3.33;;;2.03;;
20397;SDS011;10358;49.590;11.030;2023-04-25T13:34:12;3.03;;;2.07;;
20397;SDS011;10358;49.590;11.030;2023-04-25T13:36:37;3.57;;;1.80;;
20397;SDS011;10358;49.590;11.030;2023-04-25T13:39:03;2.60;;;1.90;;
20397;SDS011;10358;49.590;11.030;2023-04-25T13:41:30;2.73;;;1.93;;
20397;SDS011;10358;49.590;11.030;2023-04-25T13:43:55;3.80;;;1.93;;
20397;SDS011;10358;49.590;11.030;2023-04-25T13:46:21;4.07;;;2.27;;
20397;SDS011;10358;49.590;11.030;2023-04-25T13:48:46;2.47;;;1.80;;
20397;SDS011;10358;49.590;11.030;2023-04-25T13:51:14;4.33;;;1.93;;
20397;SDS011;10358;49.590;11.030;2023-04-25T13:53:40;4.07;;;1.97;;
20397;SDS011;10358;49.590;11.030;2023-04-25T13:56:06;3.53;;;1.90;;
20397;SDS011;10358;49.590;11.030;2023-04-25T13:58:32;5.67;;;2.00;;
20397;SDS011;10358;49.590;11.030;2023-04-25T14:00:58;2.90;;;2.00;;
20397;SDS011;10358;49.590;11.030;2023-04-25T14:03:23;5.03;;;2.00;;
20397;SDS011;10358;49.590;11.030;2023-04-25T14:05:49;4.10;;;2.07;;
20397;SDS011;10358;49.590;11.030;2023-04-25T14:08:15;4.40;;;2.20;;
20397;SDS011;10358;49.590;11.030;2023-04-25T14:10:41;4.70;;;2.50;;
20397;SDS011;10358;49.590;11.030;2023-04-25T14:13:06;5.73;;;2.50;;
20397;SDS011;10358;49.590;11.030;2023-04-25T14:15:32;8.23;;;2.50;;
20397;SDS011;10358;49.590;11.030;2023-04-25T14:17:58;5.80;;;2.50;;
20397;SDS011;10358;49.590;11.030;2023-04-25T14:20:24;6.30;;;2.33;;
20397;SDS011;10358;49.590;11.030;2023-04-25T14:22:50;4.37;;;2.00;;
20397;SDS011;10358;49.590;11.030;2023-04-25T14:25:17;5.77;;;2.80;;
20397;SDS011;10358;49.590;11.030;2023-04-25T14:27:42;4.23;;;2.27;;
20397;SDS011;10358;49.590;11.030;2023-04-25T14:30:10;4.30;;;2.70;;
20397;SDS011;10358;49.590;11.030;2023-04-25T14:32:36;3.50;;;2.30;;
20397;SDS011;10358;49.590;11.030;2023-04-25T14:35:02;3.43;;;2.20;;
20397;SDS011;10358;49.590;11.030;2023-04-25T14:37:28;3.90;;;2.77;;
20397;SDS011;10358;49.590;11.030;2023-04-25T14:39:53;3.67;;;2.30;;